Chops — WDF9738 — position and weather

sailwx.info

Track history (hours):
 
Tides and Currents Weather Stations Pressure Air Temp Water Temp Dewpoint Dewpoint Depression Visibility Wind Speed Wind Dir Waves Ship Positions

Chops

Owner: Genesis Marine LLC, Houston, TX. More information available from US FCC via Universal Licensing System and Coast Guard Vessel Documentation Center.

Last reported at 2017-Sep-24 10:35 UTC. Time now 2017-Sep-25 11:48 UTC.
Position N 29°46' W 095°06'.

Length 9 m.

Type: Other ship. MMSI: 367508327.

Date/timePositionNaut miles runAvg speedWind from/ knotsBaromVisibWave heightAir tempDewpointWater temp
2017-Sep-24 10:35N 29°46' W 095°06'0 0.1
2017-Sep-24 10:23N 29°46' W 095°06'0 0.0
2017-Sep-24 09:59N 29°46' W 095°06'0 0.0
2017-Sep-24 09:30N 29°46' W 095°06'0 0.0
2017-Sep-24 08:54N 29°46' W 095°06'1 1.6
2017-Sep-24 08:30N 29°46' W 095°05'2 1.9
2017-Sep-24 07:27N 29°47' W 095°04'0 0.0
2017-Sep-24 06:58N 29°47' W 095°04'0 1.0
2017-Sep-24 06:30N 29°47' W 095°04'  
2017-Sep-21 17:14N 29°51' W 092°20'1 4.2
2017-Sep-21 17:00N 29°50' W 092°19'2 3.8
2017-Sep-21 16:24N 29°49' W 092°17'2 4.3
2017-Sep-21 16:00N 29°48' W 092°15'2 4.5
2017-Sep-21 15:30N 29°47' W 092°13'1 1.3
2017-Sep-21 15:00N 29°47' W 092°12'1 2.0
2017-Sep-21 14:30N 29°47' W 092°11'0 0.1
2017-Sep-21 14:00N 29°47' W 092°11'1 1.8
2017-Sep-21 13:30N 29°47' W 092°10'2 4.5
2017-Sep-21 13:00N 29°47' W 092°08'2 4.6
2017-Sep-21 12:30N 29°48' W 092°05'3 4.8
2017-Sep-21 11:59N 29°49' W 092°02'  
2017-Sep-17 06:05N 29°35' W 090°57'1 4.6
2017-Sep-17 05:47N 29°34' W 090°56'1 4.3
2017-Sep-17 05:31N 29°33' W 090°55'3 4.4
2017-Sep-17 04:54N 29°32' W 090°52'2 4.4
2017-Sep-17 04:31N 29°32' W 090°50'2 4.2
2017-Sep-17 04:00N 29°32' W 090°48'2 3.9
2017-Sep-17 03:30N 29°33' W 090°46'2 4.0
2017-Sep-17 03:00N 29°34' W 090°44'1 2.7
2017-Sep-17 02:30N 29°33' W 090°42'1 2.1
2017-Sep-17 02:00N 29°34' W 090°42'0 0.0
2017-Sep-17 01:30N 29°34' W 090°42'0 0.0
2017-Sep-17 01:00N 29°34' W 090°42'0 0.0
2017-Sep-17 00:30N 29°34' W 090°42'0 0.0
2017-Sep-17 00:00N 29°34' W 090°42'0 0.0
2017-Sep-16 23:31N 29°34' W 090°42'0 0.0
2017-Sep-16 23:00N 29°34' W 090°42'0 0.0
2017-Sep-16 22:31N 29°34' W 090°42'0 0.0
2017-Sep-16 22:00N 29°34' W 090°42'0 0.0
2017-Sep-16 21:31N 29°34' W 090°42'0 0.0
2017-Sep-16 21:01N 29°34' W 090°42'0 0.0
2017-Sep-16 20:30N 29°34' W 090°42'0 0.0
2017-Sep-16 20:00N 29°34' W 090°42'0 0.0
2017-Sep-16 19:30N 29°34' W 090°42'0 0.0
2017-Sep-16 19:01N 29°34' W 090°42'0 0.0
2017-Sep-16 18:30N 29°34' W 090°42'0 0.0
2017-Sep-16 18:01N 29°34' W 090°42'0 0.0
2017-Sep-16 17:30N 29°34' W 090°42'0 0.0
2017-Sep-16 17:01N 29°34' W 090°42'0 0.0
2017-Sep-16 16:31N 29°34' W 090°42'0 0.0
2017-Sep-16 16:01N 29°34' W 090°42'0 0.0
2017-Sep-16 15:30N 29°34' W 090°42'0 0.0
2017-Sep-16 15:00N 29°34' W 090°42'0 0.0
2017-Sep-16 14:31N 29°34' W 090°42'0 0.0
2017-Sep-16 14:00N 29°34' W 090°42'0 0.0
2017-Sep-16 13:31N 29°34' W 090°42'0 0.0
2017-Sep-16 13:00N 29°34' W 090°42'0 0.0
2017-Sep-16 12:30N 29°34' W 090°42'0 0.0
2017-Sep-16 12:01N 29°34' W 090°42'0 0.0
2017-Sep-16 11:30N 29°34' W 090°42'0 0.0
2017-Sep-16 11:00N 29°34' W 090°42'0 0.0
2017-Sep-16 10:30N 29°34' W 090°42'0 0.0
2017-Sep-16 10:00N 29°34' W 090°42'0 0.0
2017-Sep-16 09:31N 29°34' W 090°42'0 0.0
2017-Sep-16 09:00N 29°34' W 090°42'0 0.0
2017-Sep-16 08:30N 29°34' W 090°42'0 0.0
2017-Sep-16 08:00N 29°34' W 090°42'0 0.0
2017-Sep-16 07:31N 29°34' W 090°42'0 0.0
2017-Sep-16 07:00N 29°34' W 090°42'0 0.0
2017-Sep-16 06:30N 29°34' W 090°42'0 0.0
2017-Sep-16 06:01N 29°34' W 090°42'0 0.0
2017-Sep-16 05:30N 29°34' W 090°42'0 0.0
2017-Sep-16 05:00N 29°34' W 090°42'0 0.0
2017-Sep-16 04:31N 29°34' W 090°42'0 0.0
2017-Sep-16 04:00N 29°34' W 090°42'0 0.0
2017-Sep-16 03:30N 29°34' W 090°42'0 0.0
2017-Sep-16 03:00N 29°34' W 090°42'0 0.0
2017-Sep-16 02:30N 29°34' W 090°42'0 0.0
2017-Sep-16 02:00N 29°34' W 090°42'0 0.0
2017-Sep-16 01:30N 29°34' W 090°42'0 0.0
2017-Sep-16 01:01N 29°34' W 090°42'0 0.0
2017-Sep-16 00:30N 29°34' W 090°42'0 0.0
2017-Sep-16 00:01N 29°34' W 090°42'0 0.0
2017-Sep-15 23:30N 29°34' W 090°42'0 0.0
2017-Sep-15 23:00N 29°34' W 090°42'0 0.0
2017-Sep-15 22:30N 29°34' W 090°42'0 0.0
2017-Sep-15 22:00N 29°34' W 090°42'0 0.0
2017-Sep-15 21:31N 29°34' W 090°42'0 0.0
2017-Sep-15 21:01N 29°34' W 090°42'0 0.0
2017-Sep-15 20:30N 29°34' W 090°42'0 0.0
2017-Sep-15 20:00N 29°34' W 090°42'0 0.0
2017-Sep-15 19:30N 29°34' W 090°42'0 0.0
2017-Sep-15 19:00N 29°34' W 090°42'0 0.0
2017-Sep-15 18:31N 29°34' W 090°42'0 0.0
2017-Sep-15 18:01N 29°34' W 090°42'0 0.0
2017-Sep-15 17:30N 29°34' W 090°42'0 0.0
2017-Sep-15 17:01N 29°34' W 090°42'0 0.0
2017-Sep-15 16:31N 29°34' W 090°42'0 0.0
2017-Sep-15 16:00N 29°34' W 090°42'0 0.0
2017-Sep-15 15:30N 29°34' W 090°42'0 0.0
2017-Sep-15 15:01N 29°34' W 090°42'0 0.0
2017-Sep-15 14:31N 29°34' W 090°42'0 0.0
2017-Sep-15 14:00N 29°34' W 090°42'0 0.0
2017-Sep-15 13:30N 29°34' W 090°42'0 0.0
2017-Sep-15 13:01N 29°34' W 090°42'0 0.0
2017-Sep-15 12:30N 29°34' W 090°42'0 0.0
2017-Sep-15 12:00N 29°34' W 090°42'0 0.0
2017-Sep-15 11:31N 29°34' W 090°42'0 0.0
2017-Sep-15 11:00N 29°34' W 090°42'0 0.0
2017-Sep-15 10:31N 29°34' W 090°42'0 0.0
2017-Sep-15 10:00N 29°34' W 090°42'0 0.0
2017-Sep-15 09:30N 29°34' W 090°42'0 0.0
2017-Sep-15 09:00N 29°34' W 090°42'0 0.0
2017-Sep-15 08:30N 29°34' W 090°42'0 0.0
2017-Sep-15 08:00N 29°34' W 090°42'0 0.0
2017-Sep-15 07:31N 29°34' W 090°42'0 0.0
2017-Sep-15 07:01N 29°34' W 090°42'0 0.0
2017-Sep-15 06:31N 29°34' W 090°42'0 0.0
2017-Sep-15 06:00N 29°34' W 090°42'0 0.0
2017-Sep-15 05:31N 29°34' W 090°42'0 0.0
2017-Sep-15 05:00N 29°34' W 090°42'0 0.0
2017-Sep-15 04:30N 29°34' W 090°42'0 0.0
2017-Sep-15 04:00N 29°34' W 090°42'0 0.0
2017-Sep-15 03:30N 29°34' W 090°42'0 0.0
2017-Sep-15 03:01N 29°34' W 090°42'0 0.0
2017-Sep-15 02:30N 29°34' W 090°42'0 0.0
2017-Sep-15 02:00N 29°34' W 090°42'0 0.0
2017-Sep-15 01:31N 29°34' W 090°42'0 0.0
2017-Sep-15 01:01N 29°34' W 090°42'0 0.0
2017-Sep-15 00:31N 29°34' W 090°42'0 0.0
2017-Sep-15 00:00N 29°34' W 090°42'0 0.0
2017-Sep-14 23:30N 29°34' W 090°42'0 0.0
2017-Sep-14 23:01N 29°34' W 090°42'0 0.0
2017-Sep-14 22:30N 29°34' W 090°42'0 0.0
2017-Sep-14 22:00N 29°34' W 090°42'0 0.0
2017-Sep-14 21:31N 29°34' W 090°42'0 0.0
2017-Sep-14 21:00N 29°34' W 090°42'0 0.0
2017-Sep-14 20:30N 29°34' W 090°42'0 0.0
2017-Sep-14 20:01N 29°34' W 090°42'0 0.0
2017-Sep-14 19:30N 29°34' W 090°42'0 0.0
2017-Sep-14 19:01N 29°34' W 090°42'0 0.0
2017-Sep-14 18:31N 29°34' W 090°42'0 0.0
2017-Sep-14 18:00N 29°34' W 090°42'0 0.0
2017-Sep-14 17:31N 29°34' W 090°42'0 0.0
2017-Sep-14 17:00N 29°34' W 090°42'0 0.0
2017-Sep-14 16:31N 29°34' W 090°42'0 0.0
2017-Sep-14 16:00N 29°34' W 090°42'0 0.0
2017-Sep-14 15:31N 29°34' W 090°42'0 0.0
2017-Sep-14 15:00N 29°34' W 090°42'0 0.0
2017-Sep-14 14:30N 29°34' W 090°42'0 0.0
2017-Sep-14 14:00N 29°34' W 090°42'0 0.0
2017-Sep-14 13:30N 29°34' W 090°42'0 0.0
2017-Sep-14 13:00N 29°34' W 090°42'0 0.0
2017-Sep-14 12:30N 29°34' W 090°42'0 0.0
2017-Sep-14 12:00N 29°34' W 090°42'0 0.0
2017-Sep-14 11:31N 29°34' W 090°42'0 0.0
2017-Sep-14 11:00N 29°34' W 090°42'  
Track history (hours):
 
Tides and Currents Weather Stations Pressure Air Temp Water Temp Dewpoint Dewpoint Depression Visibility Wind Speed Wind Dir Waves Ship Positions

Chops

Owner: Genesis Marine LLC, Houston, TX. More information available from US FCC via Universal Licensing System and Coast Guard Vessel Documentation Center.

Last reported at 2017-Sep-24 10:35 UTC. Time now 2017-Sep-25 11:48 UTC.
Position N 29°46' W 095°06'.

Length 9 m.

Type: Other ship. MMSI: 367508327.

Date/timePositionNaut miles runAvg speedWind from/ knotsBaromVisibWave heightAir tempDewpointWater temp
2017-Sep-24 10:35N 29°46' W 095°06'0 0.1
2017-Sep-24 10:23N 29°46' W 095°06'0 0.0
2017-Sep-24 09:59N 29°46' W 095°06'0 0.0
2017-Sep-24 09:30N 29°46' W 095°06'0 0.0
2017-Sep-24 08:54N 29°46' W 095°06'1 1.6
2017-Sep-24 08:30N 29°46' W 095°05'2 1.9
2017-Sep-24 07:27N 29°47' W 095°04'0 0.0
2017-Sep-24 06:58N 29°47' W 095°04'0 1.0
2017-Sep-24 06:30N 29°47' W 095°04'  
2017-Sep-21 17:14N 29°51' W 092°20'1 4.2
2017-Sep-21 17:00N 29°50' W 092°19'2 3.8
2017-Sep-21 16:24N 29°49' W 092°17'2 4.3
2017-Sep-21 16:00N 29°48' W 092°15'2 4.5
2017-Sep-21 15:30N 29°47' W 092°13'1 1.3
2017-Sep-21 15:00N 29°47' W 092°12'1 2.0
2017-Sep-21 14:30N 29°47' W 092°11'0 0.1
2017-Sep-21 14:00N 29°47' W 092°11'1 1.8
2017-Sep-21 13:30N 29°47' W 092°10'2 4.5
2017-Sep-21 13:00N 29°47' W 092°08'2 4.6
2017-Sep-21 12:30N 29°48' W 092°05'3 4.8
2017-Sep-21 11:59N 29°49' W 092°02'  
2017-Sep-17 06:05N 29°35' W 090°57'1 4.6
2017-Sep-17 05:47N 29°34' W 090°56'1 4.3
2017-Sep-17 05:31N 29°33' W 090°55'3 4.4
2017-Sep-17 04:54N 29°32' W 090°52'2 4.4
2017-Sep-17 04:31N 29°32' W 090°50'2 4.2
2017-Sep-17 04:00N 29°32' W 090°48'2 3.9
2017-Sep-17 03:30N 29°33' W 090°46'2 4.0
2017-Sep-17 03:00N 29°34' W 090°44'1 2.7
2017-Sep-17 02:30N 29°33' W 090°42'1 2.1
2017-Sep-17 02:00N 29°34' W 090°42'0 0.0
2017-Sep-17 01:30N 29°34' W 090°42'0 0.0
2017-Sep-17 01:00N 29°34' W 090°42'0 0.0
2017-Sep-17 00:30N 29°34' W 090°42'0 0.0
2017-Sep-17 00:00N 29°34' W 090°42'0 0.0
2017-Sep-16 23:31N 29°34' W 090°42'0 0.0
2017-Sep-16 23:00N 29°34' W 090°42'0 0.0
2017-Sep-16 22:31N 29°34' W 090°42'0 0.0
2017-Sep-16 22:00N 29°34' W 090°42'0 0.0
2017-Sep-16 21:31N 29°34' W 090°42'0 0.0
2017-Sep-16 21:01N 29°34' W 090°42'0 0.0
2017-Sep-16 20:30N 29°34' W 090°42'0 0.0
2017-Sep-16 20:00N 29°34' W 090°42'0 0.0
2017-Sep-16 19:30N 29°34' W 090°42'0 0.0
2017-Sep-16 19:01N 29°34' W 090°42'0 0.0
2017-Sep-16 18:30N 29°34' W 090°42'0 0.0
2017-Sep-16 18:01N 29°34' W 090°42'0 0.0
2017-Sep-16 17:30N 29°34' W 090°42'0 0.0
2017-Sep-16 17:01N 29°34' W 090°42'0 0.0
2017-Sep-16 16:31N 29°34' W 090°42'0 0.0
2017-Sep-16 16:01N 29°34' W 090°42'0 0.0
2017-Sep-16 15:30N 29°34' W 090°42'0 0.0
2017-Sep-16 15:00N 29°34' W 090°42'0 0.0
2017-Sep-16 14:31N 29°34' W 090°42'0 0.0
2017-Sep-16 14:00N 29°34' W 090°42'0 0.0
2017-Sep-16 13:31N 29°34' W 090°42'0 0.0
2017-Sep-16 13:00N 29°34' W 090°42'0 0.0
2017-Sep-16 12:30N 29°34' W 090°42'0 0.0
2017-Sep-16 12:01N 29°34' W 090°42'0 0.0
2017-Sep-16 11:30N 29°34' W 090°42'0 0.0
2017-Sep-16 11:00N 29°34' W 090°42'0 0.0
2017-Sep-16 10:30N 29°34' W 090°42'0 0.0
2017-Sep-16 10:00N 29°34' W 090°42'0 0.0
2017-Sep-16 09:31N 29°34' W 090°42'0 0.0
2017-Sep-16 09:00N 29°34' W 090°42'0 0.0
2017-Sep-16 08:30N 29°34' W 090°42'0 0.0
2017-Sep-16 08:00N 29°34' W 090°42'0 0.0
2017-Sep-16 07:31N 29°34' W 090°42'0 0.0
2017-Sep-16 07:00N 29°34' W 090°42'0 0.0
2017-Sep-16 06:30N 29°34' W 090°42'0 0.0
2017-Sep-16 06:01N 29°34' W 090°42'0 0.0
2017-Sep-16 05:30N 29°34' W 090°42'0 0.0
2017-Sep-16 05:00N 29°34' W 090°42'0 0.0
2017-Sep-16 04:31N 29°34' W 090°42'0 0.0
2017-Sep-16 04:00N 29°34' W 090°42'0 0.0
2017-Sep-16 03:30N 29°34' W 090°42'0 0.0
2017-Sep-16 03:00N 29°34' W 090°42'0 0.0
2017-Sep-16 02:30N 29°34' W 090°42'0 0.0
2017-Sep-16 02:00N 29°34' W 090°42'0 0.0
2017-Sep-16 01:30N 29°34' W 090°42'0 0.0
2017-Sep-16 01:01N 29°34' W 090°42'0 0.0
2017-Sep-16 00:30N 29°34' W 090°42'0 0.0
2017-Sep-16 00:01N 29°34' W 090°42'0 0.0
2017-Sep-15 23:30N 29°34' W 090°42'0 0.0
2017-Sep-15 23:00N 29°34' W 090°42'0 0.0
2017-Sep-15 22:30N 29°34' W 090°42'0 0.0
2017-Sep-15 22:00N 29°34' W 090°42'0 0.0
2017-Sep-15 21:31N 29°34' W 090°42'0 0.0
2017-Sep-15 21:01N 29°34' W 090°42'0 0.0
2017-Sep-15 20:30N 29°34' W 090°42'0 0.0
2017-Sep-15 20:00N 29°34' W 090°42'0 0.0
2017-Sep-15 19:30N 29°34' W 090°42'0 0.0
2017-Sep-15 19:00N 29°34' W 090°42'0 0.0
2017-Sep-15 18:31N 29°34' W 090°42'0 0.0
2017-Sep-15 18:01N 29°34' W 090°42'0 0.0
2017-Sep-15 17:30N 29°34' W 090°42'0 0.0
2017-Sep-15 17:01N 29°34' W 090°42'0 0.0
2017-Sep-15 16:31N 29°34' W 090°42'0 0.0
2017-Sep-15 16:00N 29°34' W 090°42'0 0.0
2017-Sep-15 15:30N 29°34' W 090°42'0 0.0
2017-Sep-15 15:01N 29°34' W 090°42'0 0.0
2017-Sep-15 14:31N 29°34' W 090°42'0 0.0
2017-Sep-15 14:00N 29°34' W 090°42'0 0.0
2017-Sep-15 13:30N 29°34' W 090°42'0 0.0
2017-Sep-15 13:01N 29°34' W 090°42'0 0.0
2017-Sep-15 12:30N 29°34' W 090°42'0 0.0
2017-Sep-15 12:00N 29°34' W 090°42'0 0.0
2017-Sep-15 11:31N 29°34' W 090°42'0 0.0
2017-Sep-15 11:00N 29°34' W 090°42'0 0.0
2017-Sep-15 10:31N 29°34' W 090°42'0 0.0
2017-Sep-15 10:00N 29°34' W 090°42'0 0.0
2017-Sep-15 09:30N 29°34' W 090°42'0 0.0
2017-Sep-15 09:00N 29°34' W 090°42'0 0.0
2017-Sep-15 08:30N 29°34' W 090°42'0 0.0
2017-Sep-15 08:00N 29°34' W 090°42'0 0.0
2017-Sep-15 07:31N 29°34' W 090°42'0 0.0
2017-Sep-15 07:01N 29°34' W 090°42'0 0.0
2017-Sep-15 06:31N 29°34' W 090°42'0 0.0
2017-Sep-15 06:00N 29°34' W 090°42'0 0.0
2017-Sep-15 05:31N 29°34' W 090°42'0 0.0
2017-Sep-15 05:00N 29°34' W 090°42'0 0.0
2017-Sep-15 04:30N 29°34' W 090°42'0 0.0
2017-Sep-15 04:00N 29°34' W 090°42'0 0.0
2017-Sep-15 03:30N 29°34' W 090°42'0 0.0
2017-Sep-15 03:01N 29°34' W 090°42'0 0.0
2017-Sep-15 02:30N 29°34' W 090°42'0 0.0
2017-Sep-15 02:00N 29°34' W 090°42'0 0.0
2017-Sep-15 01:31N 29°34' W 090°42'0 0.0
2017-Sep-15 01:01N 29°34' W 090°42'0 0.0
2017-Sep-15 00:31N 29°34' W 090°42'0 0.0
2017-Sep-15 00:00N 29°34' W 090°42'0 0.0
2017-Sep-14 23:30N 29°34' W 090°42'0 0.0
2017-Sep-14 23:01N 29°34' W 090°42'0 0.0
2017-Sep-14 22:30N 29°34' W 090°42'0 0.0
2017-Sep-14 22:00N 29°34' W 090°42'0 0.0
2017-Sep-14 21:31N 29°34' W 090°42'0 0.0
2017-Sep-14 21:00N 29°34' W 090°42'0 0.0
2017-Sep-14 20:30N 29°34' W 090°42'0 0.0
2017-Sep-14 20:01N 29°34' W 090°42'0 0.0
2017-Sep-14 19:30N 29°34' W 090°42'0 0.0
2017-Sep-14 19:01N 29°34' W 090°42'0 0.0
2017-Sep-14 18:31N 29°34' W 090°42'0 0.0
2017-Sep-14 18:00N 29°34' W 090°42'0 0.0
2017-Sep-14 17:31N 29°34' W 090°42'0 0.0
2017-Sep-14 17:00N 29°34' W 090°42'0 0.0
2017-Sep-14 16:31N 29°34' W 090°42'0 0.0
2017-Sep-14 16:00N 29°34' W 090°42'0 0.0
2017-Sep-14 15:31N 29°34' W 090°42'0 0.0
2017-Sep-14 15:00N 29°34' W 090°42'0 0.0
2017-Sep-14 14:30N 29°34' W 090°42'0 0.0
2017-Sep-14 14:00N 29°34' W 090°42'0 0.0
2017-Sep-14 13:30N 29°34' W 090°42'0 0.0
2017-Sep-14 13:00N 29°34' W 090°42'0 0.0
2017-Sep-14 12:30N 29°34' W 090°42'0 0.0
2017-Sep-14 12:00N 29°34' W 090°42'0 0.0
2017-Sep-14 11:31N 29°34' W 090°42'0 0.0
2017-Sep-14 11:00N 29°34' W 090°42'  

Dump ship's entire track history